createdAt,value
2018-11-11T00:00:03.135Z,99596.72
2018-11-11T00:02:31.587Z,99598.55
2018-11-11T00:05:00.124Z,99587.83
2018-11-11T00:07:28.763Z,99593.94
2018-11-11T00:09:57.225Z,99593.97
2018-11-11T00:12:25.745Z,99592.64
2018-11-11T00:14:54.285Z,99589.37
2018-11-11T00:17:22.814Z,99588.87
2018-11-11T00:19:51.323Z,99587.77
2018-11-11T00:22:19.826Z,99592.02
2018-11-11T00:24:48.398Z,99592.30
2018-11-11T00:27:16.984Z,99591.56
2018-11-11T00:29:45.487Z,99593.47
2018-11-11T00:32:13.973Z,99594.38
2018-11-11T00:34:42.512Z,99595.12
2018-11-11T00:37:11.046Z,99603.98
2018-11-11T00:39:39.582Z,99595.91
2018-11-11T00:42:08.105Z,99598.77
2018-11-11T00:44:36.641Z,99597.23
2018-11-11T00:47:05.503Z,99599.82
2018-11-11T00:49:34.142Z,99602.55
2018-11-11T00:52:02.681Z,99606.08
2018-11-11T00:54:31.226Z,99593.20
2018-11-11T00:56:59.770Z,99593.66
2018-11-11T00:59:28.306Z,99588.00
2018-11-11T01:01:56.838Z,99585.94
2018-11-11T01:04:26.341Z,99576.45
2018-11-11T01:06:54.936Z,99581.24
2018-11-11T01:09:23.429Z,99587.41
2018-11-11T01:11:52.004Z,99590.70
2018-11-11T01:14:20.612Z,99589.02
2018-11-11T01:16:49.169Z,99586.53
2018-11-11T01:19:17.866Z,99587.27
2018-11-11T01:21:46.445Z,99588.36
2018-11-11T01:24:14.985Z,99596.61
2018-11-11T01:26:43.623Z,99601.31
2018-11-11T01:29:12.215Z,99596.06
2018-11-11T01:31:40.716Z,99605.39
2018-11-11T01:34:09.258Z,99599.86
2018-11-11T01:36:37.803Z,99601.14
2018-11-11T01:39:07.220Z,99597.45
2018-11-11T01:41:35.725Z,99597.09
2018-11-11T01:44:04.600Z,99607.14
2018-11-11T01:46:33.122Z,99594.23
2018-11-11T01:49:01.764Z,99594.00
2018-11-11T01:51:30.331Z,99593.92
2018-11-11T01:53:58.979Z,99597.28
2018-11-11T01:56:27.493Z,99601.41
2018-11-11T01:58:55.981Z,99603.73
2018-11-11T02:01:24.637Z,99596.02
2018-11-11T02:03:53.102Z,99592.38
2018-11-11T02:06:21.647Z,99597.16
2018-11-11T02:08:50.192Z,99598.25
2018-11-11T02:11:18.801Z,99599.88
2018-11-11T02:13:47.482Z,99593.61
2018-11-11T02:16:15.986Z,99590.44
2018-11-11T02:18:44.619Z,99588.22
2018-11-11T02:21:13.200Z,99590.35
2018-11-11T02:23:41.587Z,99592.43
2018-11-11T02:26:10.105Z,99595.07
2018-11-11T02:28:38.595Z,99597.40
2018-11-11T02:31:07.337Z,99593.94
2018-11-11T02:33:35.973Z,99592.05
2018-11-11T02:36:04.594Z,99588.50
2018-11-11T02:38:33.098Z,99583.30
2018-11-11T02:41:01.609Z,99579.27
2018-11-11T02:43:30.082Z,99579.93
2018-11-11T02:45:58.612Z,99582.23
2018-11-11T02:48:27.186Z,99579.84
2018-11-11T02:50:55.692Z,99583.38
2018-11-11T02:53:24.343Z,99580.95
2018-11-11T02:55:52.876Z,99580.26
2018-11-11T02:58:21.362Z,99585.32
2018-11-11T03:00:49.960Z,99582.90
2018-11-11T03:03:18.518Z,99590.98
2018-11-11T03:05:47.036Z,99586.33
2018-11-11T03:08:15.560Z,99584.28
2018-11-11T03:10:44.084Z,99590.13
2018-11-11T03:13:12.599Z,99582.36
2018-11-11T03:15:41.175Z,99583.96
2018-11-11T03:18:09.747Z,99579.96
2018-11-11T03:20:38.361Z,99578.42
2018-11-11T03:23:06.939Z,99579.00
2018-11-11T03:25:35.493Z,99576.14
2018-11-11T03:28:04.034Z,99578.50
2018-11-11T03:30:32.581Z,99584.31
2018-11-11T03:33:01.724Z,99579.56
2018-11-11T03:35:30.218Z,99581.33
2018-11-11T03:37:58.774Z,99582.68
2018-11-11T03:40:27.255Z,99588.34
2018-11-11T03:42:55.784Z,99588.69
2018-11-11T03:45:24.450Z,99588.02
2018-11-11T03:47:53.225Z,99592.05
2018-11-11T03:50:21.735Z,99585.78
2018-11-11T03:52:50.311Z,99589.09
2018-11-11T03:55:18.978Z,99591.51
2018-11-11T03:57:47.464Z,99596.18
2018-11-11T04:00:16.684Z,99593.22
2018-11-11T04:02:45.268Z,99589.77
2018-11-11T04:05:15.147Z,99590.53
2018-11-11T04:07:43.673Z,99589.69
2018-11-11T04:10:14.303Z,99590.77
2018-11-11T04:12:43.087Z,99581.86
2018-11-11T04:15:12.983Z,99591.41
2018-11-11T04:17:41.578Z,99589.52
2018-11-11T04:20:12.247Z,99589.36
2018-11-11T04:22:40.924Z,99595.23
2018-11-11T04:25:09.525Z,99600.90
2018-11-11T04:27:38.083Z,99597.37
2018-11-11T04:30:07.248Z,99598.63
2018-11-11T04:32:35.805Z,99597.08
2018-11-11T04:35:04.527Z,99589.43
2018-11-11T04:37:32.988Z,99584.32
2018-11-11T04:40:01.493Z,99580.35
2018-11-11T04:42:29.961Z,99579.81
2018-11-11T04:44:58.560Z,99577.34
2018-11-11T04:47:27.078Z,99584.59
2018-11-11T04:49:55.629Z,99575.64
2018-11-11T04:52:24.198Z,99581.30
2018-11-11T04:54:52.738Z,99586.45
2018-11-11T04:57:21.251Z,99589.02
2018-11-11T04:59:49.747Z,99585.79
2018-11-11T05:02:18.226Z,99578.50
2018-11-11T05:04:46.831Z,99585.12
2018-11-11T05:07:15.291Z,99589.51
2018-11-11T05:09:43.882Z,99583.23
2018-11-11T05:12:12.354Z,99588.59
2018-11-11T05:14:40.842Z,99587.63
2018-11-11T05:17:09.352Z,99589.41
2018-11-11T05:19:37.853Z,99590.55
2018-11-11T05:22:06.996Z,99589.51
2018-11-11T05:24:35.525Z,99590.95
2018-11-11T05:27:04.098Z,99596.52
2018-11-11T05:29:32.821Z,99596.89
2018-11-11T05:32:01.327Z,99604.83
2018-11-11T05:34:29.834Z,99595.34
2018-11-11T05:36:58.314Z,99598.53
2018-11-11T05:39:26.825Z,99593.73
2018-11-11T05:41:55.358Z,99583.75
2018-11-11T05:44:23.917Z,99594.25
2018-11-11T05:46:52.439Z,99594.84
2018-11-11T05:49:20.962Z,99600.13
2018-11-11T05:51:49.438Z,99607.56
2018-11-11T05:54:17.901Z,99611.22
2018-11-11T05:56:46.394Z,99611.98
2018-11-11T05:59:14.915Z,99611.03
2018-11-11T06:01:43.526Z,99605.28
2018-11-11T06:04:11.998Z,99606.24
2018-11-11T06:06:40.470Z,99602.27
2018-11-11T06:09:09.926Z,99607.06
2018-11-11T06:11:38.901Z,99610.52
2018-11-11T06:14:07.483Z,99603.36
2018-11-11T06:16:36.281Z,99609.98
2018-11-11T06:19:04.850Z,99610.25
2018-11-11T06:21:33.336Z,99613.04
2018-11-11T06:24:01.815Z,99612.34
2018-11-11T06:26:30.334Z,99612.63
2018-11-11T06:28:58.782Z,99608.79
2018-11-11T06:31:27.344Z,99617.73
2018-11-11T06:33:55.955Z,99616.09
2018-11-11T06:36:24.396Z,99620.89
2018-11-11T06:38:52.902Z,99617.96
2018-11-11T06:41:21.373Z,99619.05
2018-11-11T06:43:50.030Z,99623.10
2018-11-11T06:46:18.488Z,99626.56
2018-11-11T06:48:47.110Z,99625.31
2018-11-11T06:51:15.742Z,99628.11
2018-11-11T06:53:44.325Z,99630.16
2018-11-11T06:56:12.834Z,99628.59
2018-11-11T06:58:41.328Z,99630.14
2018-11-11T07:01:09.806Z,99631.97
2018-11-11T07:04:00.613Z,99638.97
2018-11-11T07:06:29.877Z,99641.52
2018-11-11T07:08:58.518Z,99646.74
2018-11-11T07:11:27.006Z,99647.88
2018-11-11T07:13:55.540Z,99642.53
2018-11-11T07:16:24.041Z,99650.02
2018-11-11T07:18:52.542Z,99653.01
2018-11-11T07:21:21.049Z,99653.16
2018-11-11T07:23:49.721Z,99649.73
2018-11-11T07:26:18.145Z,99654.14
2018-11-11T07:28:46.656Z,99651.94
2018-11-11T07:31:15.121Z,99649.58
2018-11-11T07:33:43.613Z,99654.70
2018-11-11T07:36:12.279Z,99657.22
2018-11-11T07:38:40.729Z,99664.24
2018-11-11T07:41:09.703Z,99667.61
2018-11-11T07:43:38.646Z,99684.55
2018-11-11T07:46:07.204Z,99680.02
2018-11-11T07:48:35.753Z,99682.63
2018-11-11T07:51:04.370Z,99690.72
2018-11-11T07:53:32.950Z,99688.58
2018-11-11T07:56:01.574Z,99690.02
2018-11-11T07:58:30.170Z,99686.59
2018-11-11T08:00:58.754Z,99693.96
2018-11-11T08:03:27.261Z,99693.20
2018-11-11T08:05:55.809Z,99684.67
2018-11-11T08:08:24.318Z,99693.80
2018-11-11T08:11:03.923Z,99697.33
2018-11-11T08:13:32.422Z,99693.68
2018-11-11T08:16:00.959Z,99701.64
2018-11-11T08:18:29.531Z,99700.19
2018-11-11T08:20:58.090Z,99702.70
2018-11-11T08:23:26.586Z,99705.55
2018-11-11T08:25:55.129Z,99699.02
2018-11-11T08:28:23.706Z,99708.12
2018-11-11T08:30:52.226Z,99703.84
2018-11-11T08:33:20.719Z,99704.53
2018-11-11T08:35:49.207Z,99716.50
2018-11-11T08:38:17.842Z,99714.88
2018-11-11T08:40:46.385Z,99709.73
2018-11-11T08:43:14.829Z,99718.11
2018-11-11T08:45:43.409Z,99725.67
2018-11-11T08:48:11.941Z,99724.44
2018-11-11T08:50:40.435Z,99727.80
2018-11-11T08:53:08.934Z,99728.78
2018-11-11T08:55:37.497Z,99730.91
2018-11-11T08:58:06.163Z,99727.91
2018-11-11T09:00:34.600Z,99736.06
2018-11-11T09:03:03.159Z,99736.23
2018-11-11T09:05:31.633Z,99736.75
2018-11-11T09:08:00.195Z,99730.04
2018-11-11T09:10:28.654Z,99741.14
2018-11-11T09:12:57.147Z,99741.58
2018-11-11T09:15:25.756Z,99743.28
2018-11-11T09:17:54.233Z,99737.18
2018-11-11T09:20:22.877Z,99754.39
2018-11-11T09:22:51.415Z,99753.06
2018-11-11T09:25:20.039Z,99751.25
2018-11-11T09:27:48.641Z,99755.63
2018-11-11T09:30:17.268Z,99755.48
2018-11-11T09:32:45.801Z,99760.58
2018-11-11T09:35:14.350Z,99757.92
2018-11-11T09:37:43.494Z,99765.06
2018-11-11T09:40:13.101Z,99763.67
2018-11-11T09:42:41.784Z,99759.70
2018-11-11T09:45:12.334Z,99765.72
2018-11-11T09:47:41.161Z,99761.98
2018-11-11T09:50:11.590Z,99767.35
2018-11-11T09:52:40.342Z,99771.30
2018-11-11T09:55:09.845Z,99777.20
2018-11-11T09:57:38.977Z,99781.63
2018-11-11T10:07:23.478Z,99781.55
2018-11-11T10:10:02.204Z,99773.02
2018-11-11T10:13:36.137Z,99780.55
2018-11-11T10:16:40.909Z,99777.20
2018-11-11T10:19:15.212Z,99770.67
2018-11-11T10:21:55.988Z,99769.47
2018-11-11T10:24:32.674Z,99773.47
2018-11-11T10:27:05.859Z,99769.16
2018-11-11T10:29:42.736Z,99783.98
2018-11-11T10:32:26.876Z,99776.12
2018-11-11T10:35:32.005Z,99774.31
2018-11-11T10:38:05.914Z,99778.87
2018-11-11T10:40:42.870Z,99784.23
2018-11-11T10:43:16.730Z,99781.00
2018-11-11T10:45:52.942Z,99780.58
2018-11-11T10:48:25.161Z,99776.65
2018-11-11T10:50:57.927Z,99781.40
2018-11-11T10:53:26.653Z,99788.86
2018-11-11T10:55:55.777Z,99781.40
2018-11-11T10:58:24.654Z,99785.27
2018-11-11T11:01:57.363Z,99795.42
2018-11-11T11:04:26.728Z,99795.67
2018-11-11T11:07:00.533Z,99792.68
2018-11-11T11:09:29.190Z,99808.30
2018-11-11T11:11:58.093Z,99807.88
2018-11-11T11:14:26.961Z,99811.20
2018-11-11T11:16:55.757Z,99812.15
2018-11-11T11:19:24.392Z,99820.28
2018-11-11T11:21:53.347Z,99826.08
2018-11-11T11:24:22.251Z,99836.82
2018-11-11T11:26:52.677Z,99834.94
2018-11-11T11:29:22.432Z,99837.77
2018-11-11T11:31:51.215Z,99839.86
2018-11-11T11:34:19.812Z,99845.27
2018-11-11T11:36:49.624Z,99846.59
2018-11-11T11:39:18.184Z,99846.81
2018-11-11T11:41:46.749Z,99840.61
2018-11-11T11:44:15.335Z,99845.88
2018-11-11T11:46:43.821Z,99847.20
2018-11-11T11:49:12.415Z,99849.25
2018-11-11T11:51:41.571Z,99847.54
2018-11-11T11:54:10.167Z,99846.31
2018-11-11T11:56:39.047Z,99837.84
2018-11-11T11:59:07.738Z,99849.81
2018-11-11T12:01:36.374Z,99846.58
2018-11-11T12:04:05.303Z,99852.36
2018-11-11T12:06:33.843Z,99858.74
2018-11-11T12:09:02.480Z,99865.78
2018-11-11T12:11:31.163Z,99858.41
2018-11-11T12:13:59.757Z,99859.81
2018-11-11T12:16:28.321Z,99866.20
2018-11-11T12:18:56.878Z,99867.53
2018-11-11T12:21:25.410Z,99873.06
2018-11-11T12:23:53.889Z,99880.28
2018-11-11T12:26:22.807Z,99876.85
2018-11-11T12:28:51.374Z,99864.08
2018-11-11T12:31:19.870Z,99877.76
2018-11-11T12:33:48.770Z,99857.70
2018-11-11T12:36:17.285Z,99861.48
2018-11-11T12:38:45.861Z,99857.72
2018-11-11T12:41:14.403Z,99865.78
2018-11-11T12:43:43.101Z,99873.70
2018-11-11T12:46:11.608Z,99864.52
2018-11-11T12:48:40.189Z,99870.42
2018-11-11T12:51:08.782Z,99870.34
2018-11-11T12:53:37.517Z,99867.56
2018-11-11T12:56:06.557Z,99863.58
2018-11-11T12:58:35.623Z,99868.03
2018-11-11T13:01:04.191Z,99860.65
2018-11-11T13:03:32.739Z,99858.85
2018-11-11T13:06:01.296Z,99844.63
2018-11-11T13:08:30.410Z,99842.37
2018-11-11T13:10:58.910Z,99858.73
2018-11-11T13:13:28.522Z,99883.64
2018-11-11T13:15:57.113Z,99894.55
2018-11-11T13:18:25.693Z,99892.98
2018-11-11T13:20:54.283Z,99878.92
2018-11-11T13:23:23.390Z,99868.50
2018-11-11T13:25:52.092Z,99870.42
2018-11-11T13:28:20.613Z,99876.76
2018-11-11T13:30:51.412Z,99881.38
2018-11-11T13:33:20.434Z,99876.85
2018-11-11T13:35:49.002Z,99876.78
2018-11-11T13:38:18.889Z,99874.08
2018-11-11T13:40:47.394Z,99886.13
2018-11-11T13:43:15.968Z,99884.41
2018-11-11T13:45:44.470Z,99882.48
2018-11-11T13:48:13.066Z,99882.12
2018-11-11T13:50:41.679Z,99884.85
2018-11-11T13:53:16.870Z,99891.91
2018-11-11T13:55:45.439Z,99904.20
2018-11-11T13:58:13.985Z,99895.95
2018-11-11T14:00:42.555Z,99891.30
2018-11-11T14:03:11.098Z,99892.41
2018-11-11T14:05:39.637Z,99895.06
2018-11-11T14:08:08.297Z,99893.07
2018-11-11T14:10:36.949Z,99901.34
2018-11-11T14:13:05.757Z,99888.34
2018-11-11T14:15:34.289Z,99890.72
2018-11-11T14:18:02.902Z,99889.25
2018-11-11T14:20:31.641Z,99896.19
2018-11-11T14:23:00.525Z,99897.23
2018-11-11T14:25:30.356Z,99900.02
2018-11-11T14:28:00.016Z,99904.23
2018-11-11T14:30:30.604Z,99909.45
2018-11-11T14:33:00.696Z,99923.42
2018-11-11T14:35:30.398Z,99930.52
2018-11-11T14:37:59.025Z,99940.87
2018-11-11T14:40:29.913Z,99935.94
2018-11-11T14:42:59.133Z,99935.66
2018-11-11T14:45:29.034Z,99937.34
2018-11-11T14:47:59.242Z,99949.65
2018-11-11T14:50:28.605Z,99940.98
2018-11-11T14:52:57.524Z,99946.71
2018-11-11T14:55:31.018Z,99948.13
2018-11-11T14:58:00.671Z,99947.59
2018-11-11T15:00:31.455Z,99955.77
2018-11-11T15:03:16.473Z,99955.12
2018-11-11T15:05:45.135Z,99953.98
2018-11-11T15:08:14.627Z,99954.93
2018-11-11T15:10:43.603Z,99960.60
2018-11-11T15:13:13.258Z,99964.06
2018-11-11T15:15:41.889Z,99961.41
2018-11-11T15:18:11.157Z,99967.89
2018-11-11T15:20:40.447Z,99959.48
2018-11-11T15:25:37.641Z,99951.67
2018-11-11T15:28:07.017Z,99963.09
2018-11-11T15:30:36.712Z,99957.34
2018-11-11T15:33:05.885Z,99959.91
2018-11-11T15:35:35.574Z,99966.39
2018-11-11T15:38:04.283Z,99976.68
2018-11-11T15:40:34.269Z,99979.58
2018-11-11T15:43:03.247Z,99981.54
2018-11-11T15:45:34.391Z,99997.75
2018-11-11T15:48:03.310Z,100012.89
2018-11-11T15:50:32.954Z,100006.55
2018-11-11T15:53:05.079Z,99994.97
2018-11-11T15:55:34.796Z,100009.33
2018-11-11T15:58:03.444Z,100007.07
2018-11-11T16:00:34.509Z,100009.34
2018-11-11T16:03:05.146Z,100000.89
2018-11-11T16:05:34.740Z,100002.38
2018-11-11T16:08:03.732Z,100015.84
2018-11-11T16:10:33.011Z,100031.73
2018-11-11T16:13:01.538Z,100031.85
2018-11-11T16:15:32.299Z,100037.92
2018-11-11T16:18:02.579Z,100049.91
2018-11-11T16:20:31.758Z,100051.48
2018-11-11T16:23:01.414Z,100051.02
2018-11-11T16:25:30.639Z,100054.28
2018-11-11T16:28:00.996Z,100050.02
2018-11-11T16:30:31.040Z,100054.09
2018-11-11T16:33:01.477Z,100048.62
2018-11-11T16:35:30.943Z,100059.25
2018-11-11T16:38:00.018Z,100066.94
2018-11-11T16:40:30.025Z,100065.62
2018-11-11T16:42:58.844Z,100064.22
2018-11-11T16:45:29.411Z,100066.55
2018-11-11T16:47:58.341Z,100074.13
2018-11-11T16:50:28.853Z,100076.95
2018-11-11T16:52:59.503Z,100070.80
2018-11-11T16:55:29.190Z,100065.40
2018-11-11T16:57:58.887Z,100070.13
2018-11-11T17:00:29.645Z,100077.45
2018-11-11T17:02:59.326Z,100076.95
2018-11-11T17:05:29.441Z,100078.27
2018-11-11T17:08:02.081Z,100073.77
2018-11-11T17:10:32.877Z,100071.77
2018-11-11T17:13:03.194Z,100072.59
2018-11-11T17:15:32.566Z,100063.58
2018-11-11T17:18:02.168Z,100069.73
2018-11-11T17:20:31.262Z,100062.50
2018-11-11T17:23:01.676Z,100063.14
2018-11-11T17:25:30.437Z,100067.43
2018-11-11T17:27:59.116Z,100066.50
2018-11-11T17:30:29.797Z,100061.31
2018-11-11T17:32:59.031Z,100058.80
2018-11-11T17:35:27.490Z,100058.27
2018-11-11T17:37:57.061Z,100082.72
2018-11-11T17:40:27.397Z,100093.61
2018-11-11T17:42:56.498Z,100106.41
2018-11-11T17:45:25.061Z,100110.08
2018-11-11T17:47:54.213Z,100112.20
2018-11-11T17:50:24.204Z,100107.73
2018-11-11T17:52:52.782Z,100096.66
2018-11-11T17:55:22.574Z,100103.98
2018-11-11T17:57:51.906Z,100102.76
2018-11-11T18:00:21.929Z,100104.38
2018-11-11T18:02:50.650Z,100092.96
2018-11-11T18:05:20.601Z,100108.85
2018-11-11T18:07:49.187Z,100113.45
2018-11-11T18:10:19.098Z,100124.95
2018-11-11T18:12:47.569Z,100131.56
2018-11-11T18:15:18.170Z,100135.44
2018-11-11T18:17:46.727Z,100124.85
2018-11-11T18:20:18.758Z,100131.38
2018-11-11T18:22:48.313Z,100143.17
2018-11-11T18:25:16.969Z,100145.82
2018-11-11T18:27:45.557Z,100154.25
2018-11-11T18:30:18.738Z,100152.32
2018-11-11T18:32:47.545Z,100146.63
2018-11-11T18:35:17.131Z,100157.22
2018-11-11T18:37:46.334Z,100172.06
2018-11-11T18:40:16.230Z,100175.41
2018-11-11T18:42:45.020Z,100179.59
2018-11-11T18:45:14.958Z,100181.94
2018-11-11T18:47:44.472Z,100175.91
2018-11-11T18:50:18.570Z,100187.73
2018-11-11T18:52:47.278Z,100182.65
2018-11-11T18:55:16.589Z,100195.83
2018-11-11T18:57:46.904Z,100192.19
2018-11-11T19:03:31.966Z,100201.81
2018-11-11T19:06:00.693Z,100197.34
2018-11-11T19:08:29.955Z,100200.48
2018-11-11T19:10:59.416Z,100182.98
2018-11-11T19:13:28.561Z,100198.87
2018-11-11T19:15:57.558Z,100206.80
2018-11-11T19:18:26.720Z,100213.08
2018-11-11T19:20:56.407Z,100204.98
2018-11-11T19:23:26.590Z,100201.10
2018-11-11T19:25:55.819Z,100200.69
2018-11-11T19:28:24.899Z,100212.23
2018-11-11T19:30:54.701Z,100215.70
2018-11-11T19:33:23.585Z,100221.27
2018-11-11T19:35:53.411Z,100228.70
2018-11-11T19:38:22.430Z,100235.33
2018-11-11T19:40:51.375Z,100236.57
2018-11-11T19:43:20.749Z,100249.38
2018-11-11T19:45:49.882Z,100246.95
2018-11-11T19:48:18.811Z,100236.39
2018-11-11T19:50:48.577Z,100231.50
2018-11-11T19:53:17.428Z,100230.26
2018-11-11T19:55:46.680Z,100232.58
2018-11-11T19:58:15.870Z,100243.23
2018-11-11T20:00:44.799Z,100253.45
2018-11-11T20:03:13.742Z,100257.45
2018-11-11T20:05:43.609Z,100254.88
2018-11-11T20:08:12.835Z,100256.47
2018-11-11T20:10:41.679Z,100267.10
2018-11-11T20:13:11.582Z,100264.94
2018-11-11T20:15:40.918Z,100262.47
2018-11-11T20:18:09.933Z,100264.95
2018-11-11T20:20:39.842Z,100259.44
2018-11-11T20:23:08.638Z,100270.75
2018-11-11T20:25:37.502Z,100266.63
2018-11-11T20:28:06.681Z,100266.66
2018-11-11T20:30:37.153Z,100269.88
2018-11-11T20:33:07.386Z,100281.75
2018-11-11T20:35:36.435Z,100287.09
2018-11-11T20:38:06.883Z,100287.42
2018-11-11T20:40:35.639Z,100283.58
2018-11-11T20:43:04.477Z,100285.53
2018-11-11T20:45:34.045Z,100298.28
2018-11-11T20:48:02.754Z,100306.34
2018-11-11T20:50:33.753Z,100289.39
2018-11-11T20:53:04.244Z,100286.45
2018-11-11T20:55:33.136Z,100283.55
2018-11-11T20:58:03.218Z,100293.16
2018-11-11T21:00:35.137Z,100294.48
2018-11-11T21:03:04.417Z,100303.91
2018-11-11T21:05:34.517Z,100304.23
2018-11-11T21:08:03.828Z,100312.34
2018-11-11T21:10:33.090Z,100309.95
2018-11-11T21:13:02.261Z,100306.88
2018-11-11T21:15:32.032Z,100315.47
2018-11-11T21:18:01.728Z,100319.42
2018-11-11T21:20:31.804Z,100327.82
2018-11-11T21:23:01.034Z,100323.23
2018-11-11T21:25:31.371Z,100319.86
2018-11-11T21:28:00.760Z,100328.78
2018-11-11T21:30:31.652Z,100334.16
2018-11-11T21:33:01.410Z,100341.83
2018-11-11T21:35:31.217Z,100351.44
2018-11-11T21:38:00.777Z,100342.12
2018-11-11T21:40:29.811Z,100337.43
2018-11-11T21:42:59.318Z,100346.36
2018-11-11T21:45:30.022Z,100346.16
2018-11-11T21:47:58.908Z,100349.78
2018-11-11T21:50:29.131Z,100349.10
2018-11-11T21:53:34.998Z,100352.05
2018-11-11T21:56:04.525Z,100360.73
2018-11-11T21:58:33.878Z,100365.75
2018-11-11T22:01:03.663Z,100365.86
2018-11-11T22:03:32.595Z,100377.66
2018-11-11T22:06:01.295Z,100379.91
2018-11-11T22:08:29.894Z,100376.41
2018-11-11T22:10:58.434Z,100370.19
2018-11-11T22:13:27.573Z,100372.83
2018-11-11T22:15:56.449Z,100374.73
2018-11-11T22:18:24.895Z,100389.30
2018-11-11T22:20:53.942Z,100396.17
2018-11-11T22:23:22.528Z,100401.70
2018-11-11T22:25:51.080Z,100405.59
2018-11-11T22:28:19.633Z,100412.63
2018-11-11T22:30:48.199Z,100412.33
2018-11-11T22:33:16.751Z,100411.73
2018-11-11T22:35:45.267Z,100412.11
2018-11-11T22:38:13.779Z,100411.17
2018-11-11T22:40:42.273Z,100410.80
2018-11-11T22:43:10.781Z,100409.59
2018-11-11T22:45:39.399Z,100407.88
2018-11-11T22:48:08.127Z,100402.15
2018-11-11T22:50:36.673Z,100408.96
2018-11-11T22:53:05.293Z,100411.07
2018-11-11T22:55:34.055Z,100418.16
2018-11-11T22:58:02.554Z,100427.75
2018-11-11T23:00:32.016Z,100430.46
2018-11-11T23:03:00.810Z,100429.93
2018-11-11T23:05:29.938Z,100426.92
2018-11-11T23:07:58.469Z,100452.71
2018-11-11T23:10:27.021Z,100459.67
2018-11-11T23:12:56.169Z,100446.56
2018-11-11T23:15:24.730Z,100456.58
2018-11-11T23:17:53.254Z,100475.03
2018-11-11T23:20:22.034Z,100476.61
2018-11-11T23:22:50.725Z,100472.92
2018-11-11T23:25:19.410Z,100458.66
2018-11-11T23:27:47.934Z,100449.77
2018-11-11T23:30:21.122Z,100453.02
2018-11-11T23:32:49.936Z,100456.40
2018-11-11T23:35:18.678Z,100455.27
2018-11-11T23:37:47.464Z,100461.30
2018-11-11T23:40:17.181Z,100472.85
2018-11-11T23:42:46.377Z,100489.80
2018-11-11T23:45:14.913Z,100502.79
2018-11-11T23:47:43.602Z,100496.20
2018-11-11T23:50:19.394Z,100486.67
2018-11-11T23:52:49.087Z,100486.03
2018-11-11T23:55:18.565Z,100476.39
2018-11-11T23:57:47.281Z,100484.98
